sensor_id;sensor_type;location;lat;lon;timestamp;P1;durP1;ratioP1;P2;durP2;ratioP2
9799;SDS011;4939;52.00085300;4.17406100;2023-12-04T00:02:07;15.45;;;6.13;;
9799;SDS011;4939;52.00085300;4.17406100;2023-12-04T00:04:33;17.80;;;5.82;;
9799;SDS011;4939;52.00085300;4.17406100;2023-12-04T00:06:59;18.48;;;6.35;;
9799;SDS011;4939;52.00085300;4.17406100;2023-12-04T00:09:25;14.95;;;6.05;;
9799;SDS011;4939;52.00085300;4.17406100;2023-12-04T00:11:52;16.33;;;5.78;;
9799;SDS011;4939;52.00085300;4.17406100;2023-12-04T00:14:18;15.55;;;5.80;;
9799;SDS011;4939;52.00085300;4.17406100;2023-12-04T00:16:44;16.48;;;5.75;;
9799;SDS011;4939;52.00085300;4.17406100;2023-12-04T00:19:10;16.00;;;6.25;;
9799;SDS011;4939;52.00085300;4.17406100;2023-12-04T00:21:36;14.40;;;5.57;;
9799;SDS011;4939;52.00085300;4.17406100;2023-12-04T00:24:02;19.77;;;6.10;;
9799;SDS011;4939;52.00085300;4.17406100;2023-12-04T00:26:29;14.63;;;5.18;;
9799;SDS011;4939;52.00085300;4.17406100;2023-12-04T00:28:55;14.10;;;4.80;;
9799;SDS011;4939;52.00085300;4.17406100;2023-12-04T00:31:21;19.95;;;6.05;;
9799;SDS011;4939;52.00085300;4.17406100;2023-12-04T00:33:47;17.85;;;5.90;;
9799;SDS011;4939;52.00085300;4.17406100;2023-12-04T00:36:13;15.68;;;5.90;;
9799;SDS011;4939;52.00085300;4.17406100;2023-12-04T00:38:39;13.43;;;5.10;;
9799;SDS011;4939;52.00085300;4.17406100;2023-12-04T00:41:05;15.70;;;5.65;;
9799;SDS011;4939;52.00085300;4.17406100;2023-12-04T00:43:31;16.00;;;5.78;;
9799;SDS011;4939;52.00085300;4.17406100;2023-12-04T00:45:57;16.10;;;6.00;;
9799;SDS011;4939;52.00085300;4.17406100;2023-12-04T00:48:23;16.77;;;5.50;;
9799;SDS011;4939;52.00085300;4.17406100;2023-12-04T00:50:50;17.67;;;5.32;;
9799;SDS011;4939;52.00085300;4.17406100;2023-12-04T00:53:16;15.65;;;5.25;;
9799;SDS011;4939;52.00085300;4.17406100;2023-12-04T00:55:42;12.30;;;4.75;;
9799;SDS011;4939;52.00085300;4.17406100;2023-12-04T00:58:08;16.67;;;5.68;;
9799;SDS011;4939;52.00085300;4.17406100;2023-12-04T01:00:34;15.65;;;5.60;;
9799;SDS011;4939;52.00085300;4.17406100;2023-12-04T01:03:01;17.13;;;6.05;;
9799;SDS011;4939;52.00085300;4.17406100;2023-12-04T01:05:27;12.68;;;4.88;;
9799;SDS011;4939;52.00085300;4.17406100;2023-12-04T01:07:53;15.38;;;5.78;;
9799;SDS011;4939;52.00085300;4.17406100;2023-12-04T01:10:19;15.40;;;5.93;;
9799;SDS011;4939;52.00085300;4.17406100;2023-12-04T01:12:45;13.55;;;4.95;;
9799;SDS011;4939;52.00085300;4.17406100;2023-12-04T01:15:11;12.40;;;5.18;;
9799;SDS011;4939;52.00085300;4.17406100;2023-12-04T01:17:37;16.95;;;5.68;;
9799;SDS011;4939;52.00085300;4.17406100;2023-12-04T01:20:04;16.20;;;5.45;;
9799;SDS011;4939;52.00085300;4.17406100;2023-12-04T01:22:30;17.73;;;5.88;;
9799;SDS011;4939;52.00085300;4.17406100;2023-12-04T01:24:56;14.10;;;5.70;;
9799;SDS011;4939;52.00085300;4.17406100;2023-12-04T01:27:22;17.45;;;5.85;;
9799;SDS011;4939;52.00085300;4.17406100;2023-12-04T01:29:48;14.55;;;5.32;;
9799;SDS011;4939;52.00085300;4.17406100;2023-12-04T01:32:14;16.58;;;6.03;;
9799;SDS011;4939;52.00085300;4.17406100;2023-12-04T01:34:40;15.68;;;5.22;;
9799;SDS011;4939;52.00085300;4.17406100;2023-12-04T01:37:06;16.30;;;4.95;;
9799;SDS011;4939;52.00085300;4.17406100;2023-12-04T01:39:33;17.55;;;5.47;;
9799;SDS011;4939;52.00085300;4.17406100;2023-12-04T01:41:59;14.00;;;5.32;;
9799;SDS011;4939;52.00085300;4.17406100;2023-12-04T01:44:26;14.85;;;5.55;;
9799;SDS011;4939;52.00085300;4.17406100;2023-12-04T01:46:52;14.95;;;5.22;;
9799;SDS011;4939;52.00085300;4.17406100;2023-12-04T01:49:18;15.25;;;4.95;;
9799;SDS011;4939;52.00085300;4.17406100;2023-12-04T01:51:44;14.15;;;5.68;;
9799;SDS011;4939;52.00085300;4.17406100;2023-12-04T01:54:11;15.38;;;5.20;;
9799;SDS011;4939;52.00085300;4.17406100;2023-12-04T01:56:38;13.68;;;5.45;;
9799;SDS011;4939;52.00085300;4.17406100;2023-12-04T01:59:04;13.63;;;5.00;;
9799;SDS011;4939;52.00085300;4.17406100;2023-12-04T02:01:31;13.63;;;5.00;;
9799;SDS011;4939;52.00085300;4.17406100;2023-12-04T02:03:57;10.18;;;4.05;;
9799;SDS011;4939;52.00085300;4.17406100;2023-12-04T02:06:26;10.95;;;4.50;;
9799;SDS011;4939;52.00085300;4.17406100;2023-12-04T02:08:52;14.23;;;5.10;;
9799;SDS011;4939;52.00085300;4.17406100;2023-12-04T02:11:18;11.38;;;4.35;;
9799;SDS011;4939;52.00085300;4.17406100;2023-12-04T02:13:44;11.75;;;4.25;;
9799;SDS011;4939;52.00085300;4.17406100;2023-12-04T02:16:11;11.32;;;4.80;;
9799;SDS011;4939;52.00085300;4.17406100;2023-12-04T02:18:38;14.15;;;4.18;;
9799;SDS011;4939;52.00085300;4.17406100;2023-12-04T02:21:04;12.38;;;4.38;;
9799;SDS011;4939;52.00085300;4.17406100;2023-12-04T02:23:30;14.70;;;5.18;;
9799;SDS011;4939;52.00085300;4.17406100;2023-12-04T02:26:01;11.27;;;4.22;;
9799;SDS011;4939;52.00085300;4.17406100;2023-12-04T02:28:30;14.93;;;5.07;;
9799;SDS011;4939;52.00085300;4.17406100;2023-12-04T02:30:57;13.43;;;5.05;;
9799;SDS011;4939;52.00085300;4.17406100;2023-12-04T02:33:24;12.13;;;4.70;;
9799;SDS011;4939;52.00085300;4.17406100;2023-12-04T02:35:52;10.23;;;4.10;;
9799;SDS011;4939;52.00085300;4.17406100;2023-12-04T02:38:19;11.73;;;4.25;;
9799;SDS011;4939;52.00085300;4.17406100;2023-12-04T02:40:45;12.63;;;4.93;;
9799;SDS011;4939;52.00085300;4.17406100;2023-12-04T02:43:11;11.25;;;4.25;;
9799;SDS011;4939;52.00085300;4.17406100;2023-12-04T02:45:37;14.20;;;5.05;;
9799;SDS011;4939;52.00085300;4.17406100;2023-12-04T02:48:04;11.38;;;5.05;;
9799;SDS011;4939;52.00085300;4.17406100;2023-12-04T02:50:30;12.55;;;4.43;;
9799;SDS011;4939;52.00085300;4.17406100;2023-12-04T02:52:56;11.95;;;4.22;;
9799;SDS011;4939;52.00085300;4.17406100;2023-12-04T02:55:22;14.57;;;5.00;;
9799;SDS011;4939;52.00085300;4.17406100;2023-12-04T02:57:48;14.15;;;4.55;;
9799;SDS011;4939;52.00085300;4.17406100;2023-12-04T03:00:14;13.45;;;4.32;;
9799;SDS011;4939;52.00085300;4.17406100;2023-12-04T03:02:40;10.65;;;4.05;;
9799;SDS011;4939;52.00085300;4.17406100;2023-12-04T03:05:06;12.07;;;4.10;;
9799;SDS011;4939;52.00085300;4.17406100;2023-12-04T03:07:32;9.43;;;3.88;;
9799;SDS011;4939;52.00085300;4.17406100;2023-12-04T03:09:59;12.30;;;4.13;;
9799;SDS011;4939;52.00085300;4.17406100;2023-12-04T03:12:25;12.82;;;4.60;;
9799;SDS011;4939;52.00085300;4.17406100;2023-12-04T03:14:51;11.35;;;4.40;;
9799;SDS011;4939;52.00085300;4.17406100;2023-12-04T03:17:17;11.68;;;4.00;;
9799;SDS011;4939;52.00085300;4.17406100;2023-12-04T03:19:43;12.32;;;4.47;;
9799;SDS011;4939;52.00085300;4.17406100;2023-12-04T03:22:09;12.20;;;4.20;;
9799;SDS011;4939;52.00085300;4.17406100;2023-12-04T03:24:35;13.52;;;4.15;;
9799;SDS011;4939;52.00085300;4.17406100;2023-12-04T03:27:01;11.48;;;4.50;;
9799;SDS011;4939;52.00085300;4.17406100;2023-12-04T03:29:27;9.85;;;4.10;;
9799;SDS011;4939;52.00085300;4.17406100;2023-12-04T03:31:53;12.02;;;3.70;;
9799;SDS011;4939;52.00085300;4.17406100;2023-12-04T03:34:19;11.98;;;4.60;;
9799;SDS011;4939;52.00085300;4.17406100;2023-12-04T03:36:45;11.07;;;4.15;;
9799;SDS011;4939;52.00085300;4.17406100;2023-12-04T03:39:11;12.30;;;3.92;;
9799;SDS011;4939;52.00085300;4.17406100;2023-12-04T03:41:37;10.98;;;4.30;;
9799;SDS011;4939;52.00085300;4.17406100;2023-12-04T03:44:04;12.63;;;4.22;;
9799;SDS011;4939;52.00085300;4.17406100;2023-12-04T03:46:30;10.95;;;3.72;;
9799;SDS011;4939;52.00085300;4.17406100;2023-12-04T03:48:56;11.93;;;4.00;;
9799;SDS011;4939;52.00085300;4.17406100;2023-12-04T03:51:22;11.02;;;4.05;;
9799;SDS011;4939;52.00085300;4.17406100;2023-12-04T03:53:48;11.25;;;3.80;;
9799;SDS011;4939;52.00085300;4.17406100;2023-12-04T03:56:14;10.45;;;3.95;;
9799;SDS011;4939;52.00085300;4.17406100;2023-12-04T03:58:40;12.15;;;4.30;;
9799;SDS011;4939;52.00085300;4.17406100;2023-12-04T04:01:06;10.55;;;3.88;;
9799;SDS011;4939;52.00085300;4.17406100;2023-12-04T04:03:32;10.60;;;3.72;;
9799;SDS011;4939;52.00085300;4.17406100;2023-12-04T04:05:59;10.48;;;3.75;;
9799;SDS011;4939;52.00085300;4.17406100;2023-12-04T04:08:25;8.60;;;3.35;;
9799;SDS011;4939;52.00085300;4.17406100;2023-12-04T04:10:51;9.48;;;3.25;;
9799;SDS011;4939;52.00085300;4.17406100;2023-12-04T04:13:17;10.70;;;3.85;;
9799;SDS011;4939;52.00085300;4.17406100;2023-12-04T04:15:43;9.82;;;3.08;;
9799;SDS011;4939;52.00085300;4.17406100;2023-12-04T04:18:09;7.82;;;3.05;;
9799;SDS011;4939;52.00085300;4.17406100;2023-12-04T04:20:35;7.68;;;3.00;;
9799;SDS011;4939;52.00085300;4.17406100;2023-12-04T04:23:01;10.05;;;3.38;;
9799;SDS011;4939;52.00085300;4.17406100;2023-12-04T04:25:27;9.02;;;3.20;;
9799;SDS011;4939;52.00085300;4.17406100;2023-12-04T04:27:53;7.82;;;3.03;;
9799;SDS011;4939;52.00085300;4.17406100;2023-12-04T04:30:19;7.97;;;2.85;;
9799;SDS011;4939;52.00085300;4.17406100;2023-12-04T04:32:45;8.20;;;3.40;;
9799;SDS011;4939;52.00085300;4.17406100;2023-12-04T04:35:11;8.00;;;2.75;;
9799;SDS011;4939;52.00085300;4.17406100;2023-12-04T04:37:38;7.93;;;3.40;;
9799;SDS011;4939;52.00085300;4.17406100;2023-12-04T04:40:04;9.32;;;3.22;;
9799;SDS011;4939;52.00085300;4.17406100;2023-12-04T04:42:30;9.35;;;3.28;;
9799;SDS011;4939;52.00085300;4.17406100;2023-12-04T04:44:56;9.25;;;3.08;;
9799;SDS011;4939;52.00085300;4.17406100;2023-12-04T04:47:22;9.70;;;3.35;;
9799;SDS011;4939;52.00085300;4.17406100;2023-12-04T04:49:48;9.73;;;3.05;;
9799;SDS011;4939;52.00085300;4.17406100;2023-12-04T04:52:14;7.80;;;3.05;;
9799;SDS011;4939;52.00085300;4.17406100;2023-12-04T04:54:40;6.28;;;2.47;;
9799;SDS011;4939;52.00085300;4.17406100;2023-12-04T04:57:06;8.07;;;2.80;;
9799;SDS011;4939;52.00085300;4.17406100;2023-12-04T04:59:33;10.18;;;2.97;;
9799;SDS011;4939;52.00085300;4.17406100;2023-12-04T05:01:59;8.77;;;3.30;;
9799;SDS011;4939;52.00085300;4.17406100;2023-12-04T05:04:25;8.82;;;3.05;;
9799;SDS011;4939;52.00085300;4.17406100;2023-12-04T05:06:51;8.35;;;3.08;;
9799;SDS011;4939;52.00085300;4.17406100;2023-12-04T05:09:17;7.88;;;2.85;;
9799;SDS011;4939;52.00085300;4.17406100;2023-12-04T05:11:43;8.23;;;3.35;;
9799;SDS011;4939;52.00085300;4.17406100;2023-12-04T05:14:09;8.52;;;3.00;;
9799;SDS011;4939;52.00085300;4.17406100;2023-12-04T05:16:35;11.18;;;2.72;;
9799;SDS011;4939;52.00085300;4.17406100;2023-12-04T05:19:01;7.72;;;2.90;;
9799;SDS011;4939;52.00085300;4.17406100;2023-12-04T05:21:27;9.48;;;3.15;;
9799;SDS011;4939;52.00085300;4.17406100;2023-12-04T05:23:53;8.57;;;3.22;;
9799;SDS011;4939;52.00085300;4.17406100;2023-12-04T05:26:19;7.28;;;2.92;;
9799;SDS011;4939;52.00085300;4.17406100;2023-12-04T05:28:45;8.60;;;3.20;;
9799;SDS011;4939;52.00085300;4.17406100;2023-12-04T05:31:12;8.90;;;2.75;;
9799;SDS011;4939;52.00085300;4.17406100;2023-12-04T05:33:38;8.07;;;3.35;;
9799;SDS011;4939;52.00085300;4.17406100;2023-12-04T05:36:04;7.25;;;2.78;;
9799;SDS011;4939;52.00085300;4.17406100;2023-12-04T05:38:31;10.90;;;3.95;;
9799;SDS011;4939;52.00085300;4.17406100;2023-12-04T05:40:58;9.73;;;3.55;;
9799;SDS011;4939;52.00085300;4.17406100;2023-12-04T05:43:24;7.57;;;2.92;;
9799;SDS011;4939;52.00085300;4.17406100;2023-12-04T05:45:50;8.82;;;3.25;;
9799;SDS011;4939;52.00085300;4.17406100;2023-12-04T05:48:16;7.45;;;3.33;;
9799;SDS011;4939;52.00085300;4.17406100;2023-12-04T05:50:43;7.95;;;3.10;;
9799;SDS011;4939;52.00085300;4.17406100;2023-12-04T05:53:09;10.02;;;3.83;;
9799;SDS011;4939;52.00085300;4.17406100;2023-12-04T05:55:35;8.27;;;3.53;;
9799;SDS011;4939;52.00085300;4.17406100;2023-12-04T05:58:01;9.35;;;3.58;;
9799;SDS011;4939;52.00085300;4.17406100;2023-12-04T06:00:27;7.05;;;3.58;;
9799;SDS011;4939;52.00085300;4.17406100;2023-12-04T06:02:53;8.18;;;3.05;;
9799;SDS011;4939;52.00085300;4.17406100;2023-12-04T06:05:19;9.57;;;3.60;;
9799;SDS011;4939;52.00085300;4.17406100;2023-12-04T06:07:45;9.40;;;3.47;;
9799;SDS011;4939;52.00085300;4.17406100;2023-12-04T06:10:11;8.48;;;3.50;;
9799;SDS011;4939;52.00085300;4.17406100;2023-12-04T06:12:37;8.85;;;3.33;;
9799;SDS011;4939;52.00085300;4.17406100;2023-12-04T06:15:04;8.35;;;3.40;;
9799;SDS011;4939;52.00085300;4.17406100;2023-12-04T06:17:30;8.85;;;3.83;;
9799;SDS011;4939;52.00085300;4.17406100;2023-12-04T06:19:56;8.75;;;3.38;;
9799;SDS011;4939;52.00085300;4.17406100;2023-12-04T06:22:22;9.70;;;3.25;;
9799;SDS011;4939;52.00085300;4.17406100;2023-12-04T06:24:48;8.60;;;3.97;;
9799;SDS011;4939;52.00085300;4.17406100;2023-12-04T06:27:15;11.75;;;4.45;;
9799;SDS011;4939;52.00085300;4.17406100;2023-12-04T06:29:43;8.73;;;3.15;;
9799;SDS011;4939;52.00085300;4.17406100;2023-12-04T06:32:09;8.52;;;3.25;;
9799;SDS011;4939;52.00085300;4.17406100;2023-12-04T06:34:36;7.70;;;2.97;;
9799;SDS011;4939;52.00085300;4.17406100;2023-12-04T06:37:02;10.75;;;3.95;;
9799;SDS011;4939;52.00085300;4.17406100;2023-12-04T06:39:30;9.13;;;3.03;;
9799;SDS011;4939;52.00085300;4.17406100;2023-12-04T06:41:58;9.45;;;3.65;;
9799;SDS011;4939;52.00085300;4.17406100;2023-12-04T06:44:24;8.35;;;3.05;;
9799;SDS011;4939;52.00085300;4.17406100;2023-12-04T06:46:50;9.32;;;3.30;;
9799;SDS011;4939;52.00085300;4.17406100;2023-12-04T06:49:18;9.02;;;3.47;;
9799;SDS011;4939;52.00085300;4.17406100;2023-12-04T06:51:44;9.13;;;3.97;;
9799;SDS011;4939;52.00085300;4.17406100;2023-12-04T06:54:10;9.68;;;3.58;;
9799;SDS011;4939;52.00085300;4.17406100;2023-12-04T06:56:38;9.80;;;3.30;;
9799;SDS011;4939;52.00085300;4.17406100;2023-12-04T06:59:04;7.68;;;3.53;;
9799;SDS011;4939;52.00085300;4.17406100;2023-12-04T07:01:30;7.95;;;3.33;;
9799;SDS011;4939;52.00085300;4.17406100;2023-12-04T07:03:56;11.18;;;3.63;;
9799;SDS011;4939;52.00085300;4.17406100;2023-12-04T07:06:22;8.48;;;3.88;;
9799;SDS011;4939;52.00085300;4.17406100;2023-12-04T07:08:49;10.38;;;3.67;;
9799;SDS011;4939;52.00085300;4.17406100;2023-12-04T07:11:15;8.73;;;3.00;;
9799;SDS011;4939;52.00085300;4.17406100;2023-12-04T07:13:41;8.38;;;3.00;;
9799;SDS011;4939;52.00085300;4.17406100;2023-12-04T07:16:07;11.10;;;4.07;;
9799;SDS011;4939;52.00085300;4.17406100;2023-12-04T07:18:34;7.85;;;3.42;;
9799;SDS011;4939;52.00085300;4.17406100;2023-12-04T07:21:00;9.88;;;4.43;;
9799;SDS011;4939;52.00085300;4.17406100;2023-12-04T07:23:26;9.05;;;3.67;;
9799;SDS011;4939;52.00085300;4.17406100;2023-12-04T07:25:52;6.90;;;3.40;;
9799;SDS011;4939;52.00085300;4.17406100;2023-12-04T07:28:18;10.35;;;3.60;;
9799;SDS011;4939;52.00085300;4.17406100;2023-12-04T07:30:44;8.18;;;3.10;;
9799;SDS011;4939;52.00085300;4.17406100;2023-12-04T07:33:11;10.90;;;4.20;;
9799;SDS011;4939;52.00085300;4.17406100;2023-12-04T07:35:37;11.50;;;4.05;;
9799;SDS011;4939;52.00085300;4.17406100;2023-12-04T07:38:03;8.07;;;3.55;;
9799;SDS011;4939;52.00085300;4.17406100;2023-12-04T07:40:30;6.90;;;3.20;;
9799;SDS011;4939;52.00085300;4.17406100;2023-12-04T07:42:56;12.40;;;4.93;;
9799;SDS011;4939;52.00085300;4.17406100;2023-12-04T07:45:23;11.80;;;5.07;;
9799;SDS011;4939;52.00085300;4.17406100;2023-12-04T07:47:49;8.90;;;3.63;;
9799;SDS011;4939;52.00085300;4.17406100;2023-12-04T07:50:18;12.43;;;3.70;;
9799;SDS011;4939;52.00085300;4.17406100;2023-12-04T07:52:44;11.07;;;3.33;;
9799;SDS011;4939;52.00085300;4.17406100;2023-12-04T07:55:10;8.10;;;3.25;;
9799;SDS011;4939;52.00085300;4.17406100;2023-12-04T07:57:36;7.18;;;3.47;;
9799;SDS011;4939;52.00085300;4.17406100;2023-12-04T08:00:03;9.05;;;3.20;;
9799;SDS011;4939;52.00085300;4.17406100;2023-12-04T08:02:29;11.85;;;3.67;;
9799;SDS011;4939;52.00085300;4.17406100;2023-12-04T08:04:56;8.43;;;3.15;;
9799;SDS011;4939;52.00085300;4.17406100;2023-12-04T08:07:22;12.30;;;4.10;;
9799;SDS011;4939;52.00085300;4.17406100;2023-12-04T08:09:48;8.43;;;3.67;;
9799;SDS011;4939;52.00085300;4.17406100;2023-12-04T08:12:14;8.40;;;3.25;;
9799;SDS011;4939;52.00085300;4.17406100;2023-12-04T08:14:40;10.15;;;4.05;;
9799;SDS011;4939;52.00085300;4.17406100;2023-12-04T08:17:06;10.82;;;4.30;;
9799;SDS011;4939;52.00085300;4.17406100;2023-12-04T08:19:32;11.60;;;4.43;;
9799;SDS011;4939;52.00085300;4.17406100;2023-12-04T08:21:59;11.23;;;3.67;;
9799;SDS011;4939;52.00085300;4.17406100;2023-12-04T08:24:25;9.20;;;3.80;;
9799;SDS011;4939;52.00085300;4.17406100;2023-12-04T08:26:51;10.55;;;4.07;;
9799;SDS011;4939;52.00085300;4.17406100;2023-12-04T08:29:17;9.05;;;3.45;;
9799;SDS011;4939;52.00085300;4.17406100;2023-12-04T08:31:43;9.02;;;3.60;;
9799;SDS011;4939;52.00085300;4.17406100;2023-12-04T08:34:09;9.70;;;3.38;;
9799;SDS011;4939;52.00085300;4.17406100;2023-12-04T08:36:35;7.38;;;3.35;;
9799;SDS011;4939;52.00085300;4.17406100;2023-12-04T08:39:01;8.40;;;3.35;;
9799;SDS011;4939;52.00085300;4.17406100;2023-12-04T08:41:29;6.53;;;3.28;;
9799;SDS011;4939;52.00085300;4.17406100;2023-12-04T08:43:55;9.82;;;3.05;;
9799;SDS011;4939;52.00085300;4.17406100;2023-12-04T08:46:21;8.90;;;3.45;;
9799;SDS011;4939;52.00085300;4.17406100;2023-12-04T08:48:47;8.30;;;3.13;;
9799;SDS011;4939;52.00085300;4.17406100;2023-12-04T08:51:16;9.93;;;3.45;;
9799;SDS011;4939;52.00085300;4.17406100;2023-12-04T08:53:43;9.77;;;3.40;;
9799;SDS011;4939;52.00085300;4.17406100;2023-12-04T08:56:09;10.13;;;3.28;;
9799;SDS011;4939;52.00085300;4.17406100;2023-12-04T08:58:36;9.15;;;3.60;;
9799;SDS011;4939;52.00085300;4.17406100;2023-12-04T09:01:02;10.25;;;4.55;;
9799;SDS011;4939;52.00085300;4.17406100;2023-12-04T09:03:29;8.02;;;3.50;;
9799;SDS011;4939;52.00085300;4.17406100;2023-12-04T09:05:56;6.93;;;3.10;;
9799;SDS011;4939;52.00085300;4.17406100;2023-12-04T09:08:23;8.32;;;3.80;;
9799;SDS011;4939;52.00085300;4.17406100;2023-12-04T09:10:51;8.30;;;3.85;;
9799;SDS011;4939;52.00085300;4.17406100;2023-12-04T09:13:17;8.98;;;3.40;;
9799;SDS011;4939;52.00085300;4.17406100;2023-12-04T09:15:44;7.60;;;3.10;;
9799;SDS011;4939;52.00085300;4.17406100;2023-12-04T09:18:10;11.50;;;3.83;;
9799;SDS011;4939;52.00085300;4.17406100;2023-12-04T09:20:36;8.25;;;3.13;;
9799;SDS011;4939;52.00085300;4.17406100;2023-12-04T09:23:02;6.55;;;2.85;;
9799;SDS011;4939;52.00085300;4.17406100;2023-12-04T09:25:28;7.88;;;3.53;;
9799;SDS011;4939;52.00085300;4.17406100;2023-12-04T09:27:54;12.35;;;3.35;;
9799;SDS011;4939;52.00085300;4.17406100;2023-12-04T09:30:20;7.43;;;3.03;;
9799;SDS011;4939;52.00085300;4.17406100;2023-12-04T09:32:49;8.15;;;3.33;;
9799;SDS011;4939;52.00085300;4.17406100;2023-12-04T09:35:15;8.68;;;3.45;;
9799;SDS011;4939;52.00085300;4.17406100;2023-12-04T09:37:41;8.20;;;3.40;;
9799;SDS011;4939;52.00085300;4.17406100;2023-12-04T09:40:08;8.45;;;3.33;;
9799;SDS011;4939;52.00085300;4.17406100;2023-12-04T09:42:34;8.02;;;3.45;;
9799;SDS011;4939;52.00085300;4.17406100;2023-12-04T09:45:00;10.93;;;3.40;;
9799;SDS011;4939;52.00085300;4.17406100;2023-12-04T09:47:26;6.53;;;3.00;;
9799;SDS011;4939;52.00085300;4.17406100;2023-12-04T09:49:53;9.73;;;3.55;;
9799;SDS011;4939;52.00085300;4.17406100;2023-12-04T09:52:19;8.38;;;3.50;;
9799;SDS011;4939;52.00085300;4.17406100;2023-12-04T09:54:46;7.43;;;3.05;;
9799;SDS011;4939;52.00085300;4.17406100;2023-12-04T09:57:12;7.78;;;3.28;;
9799;SDS011;4939;52.00085300;4.17406100;2023-12-04T09:59:39;8.43;;;3.38;;
9799;SDS011;4939;52.00085300;4.17406100;2023-12-04T10:02:06;9.43;;;3.50;;
9799;SDS011;4939;52.00085300;4.17406100;2023-12-04T10:04:32;8.63;;;4.03;;
9799;SDS011;4939;52.00085300;4.17406100;2023-12-04T10:06:59;10.73;;;4.25;;
9799;SDS011;4939;52.00085300;4.17406100;2023-12-04T10:09:25;8.70;;;3.70;;
9799;SDS011;4939;52.00085300;4.17406100;2023-12-04T10:11:51;8.80;;;3.60;;
9799;SDS011;4939;52.00085300;4.17406100;2023-12-04T10:14:18;8.48;;;3.50;;
9799;SDS011;4939;52.00085300;4.17406100;2023-12-04T10:16:44;10.93;;;3.30;;
9799;SDS011;4939;52.00085300;4.17406100;2023-12-04T10:19:16;9.07;;;3.40;;
9799;SDS011;4939;52.00085300;4.17406100;2023-12-04T10:21:43;9.30;;;3.40;;
9799;SDS011;4939;52.00085300;4.17406100;2023-12-04T10:24:09;7.18;;;3.55;;
9799;SDS011;4939;52.00085300;4.17406100;2023-12-04T10:26:35;7.53;;;3.30;;
9799;SDS011;4939;52.00085300;4.17406100;2023-12-04T10:29:02;10.00;;;4.10;;
9799;SDS011;4939;52.00085300;4.17406100;2023-12-04T10:31:33;13.07;;;4.25;;
9799;SDS011;4939;52.00085300;4.17406100;2023-12-04T10:34:00;9.18;;;3.80;;
9799;SDS011;4939;52.00085300;4.17406100;2023-12-04T10:36:26;9.30;;;3.30;;
9799;SDS011;4939;52.00085300;4.17406100;2023-12-04T10:38:58;8.57;;;3.75;;
9799;SDS011;4939;52.00085300;4.17406100;2023-12-04T10:41:25;7.53;;;3.20;;
9799;SDS011;4939;52.00085300;4.17406100;2023-12-04T10:43:51;11.32;;;3.45;;
9799;SDS011;4939;52.00085300;4.17406100;2023-12-04T10:46:17;9.10;;;3.53;;
9799;SDS011;4939;52.00085300;4.17406100;2023-12-04T10:48:44;18.83;;;3.78;;
9799;SDS011;4939;52.00085300;4.17406100;2023-12-04T10:51:11;10.30;;;3.60;;
9799;SDS011;4939;52.00085300;4.17406100;2023-12-04T10:53:37;8.20;;;3.75;;
9799;SDS011;4939;52.00085300;4.17406100;2023-12-04T10:56:14;10.50;;;3.88;;
9799;SDS011;4939;52.00085300;4.17406100;2023-12-04T10:58:47;8.18;;;3.50;;
9799;SDS011;4939;52.00085300;4.17406100;2023-12-04T11:01:15;8.35;;;3.35;;
9799;SDS011;4939;52.00085300;4.17406100;2023-12-04T11:03:47;10.27;;;3.92;;
9799;SDS011;4939;52.00085300;4.17406100;2023-12-04T11:06:14;8.80;;;3.55;;
9799;SDS011;4939;52.00085300;4.17406100;2023-12-04T11:08:42;7.38;;;3.20;;
9799;SDS011;4939;52.00085300;4.17406100;2023-12-04T11:11:10;8.82;;;3.72;;
9799;SDS011;4939;52.00085300;4.17406100;2023-12-04T11:13:39;7.45;;;3.55;;
9799;SDS011;4939;52.00085300;4.17406100;2023-12-04T11:16:12;6.80;;;3.42;;
9799;SDS011;4939;52.00085300;4.17406100;2023-12-04T11:18:41;9.93;;;3.72;;
9799;SDS011;4939;52.00085300;4.17406100;2023-12-04T11:21:09;6.15;;;3.13;;
9799;SDS011;4939;52.00085300;4.17406100;2023-12-04T11:23:36;9.23;;;3.65;;
9799;SDS011;4939;52.00085300;4.17406100;2023-12-04T11:26:06;8.00;;;3.75;;
9799;SDS011;4939;52.00085300;4.17406100;2023-12-04T11:28:33;7.72;;;3.50;;
9799;SDS011;4939;52.00085300;4.17406100;2023-12-04T11:31:01;8.65;;;3.88;;
9799;SDS011;4939;52.00085300;4.17406100;2023-12-04T11:33:27;9.38;;;3.78;;
9799;SDS011;4939;52.00085300;4.17406100;2023-12-04T11:35:58;9.60;;;3.63;;
9799;SDS011;4939;52.00085300;4.17406100;2023-12-04T11:38:31;9.25;;;3.70;;
9799;SDS011;4939;52.00085300;4.17406100;2023-12-04T11:40:58;7.30;;;3.55;;
9799;SDS011;4939;52.00085300;4.17406100;2023-12-04T11:43:24;8.13;;;3.50;;
9799;SDS011;4939;52.00085300;4.17406100;2023-12-04T11:45:51;8.75;;;3.70;;
9799;SDS011;4939;52.00085300;4.17406100;2023-12-04T11:48:21;8.50;;;3.42;;
9799;SDS011;4939;52.00085300;4.17406100;2023-12-04T11:50:48;8.00;;;3.22;;
9799;SDS011;4939;52.00085300;4.17406100;2023-12-04T11:53:16;11.73;;;3.67;;
9799;SDS011;4939;52.00085300;4.17406100;2023-12-04T11:55:42;6.25;;;2.72;;
9799;SDS011;4939;52.00085300;4.17406100;2023-12-04T11:58:08;9.45;;;3.33;;
9799;SDS011;4939;52.00085300;4.17406100;2023-12-04T12:00:35;7.30;;;2.88;;
9799;SDS011;4939;52.00085300;4.17406100;2023-12-04T12:03:03;6.10;;;2.80;;
9799;SDS011;4939;52.00085300;4.17406100;2023-12-04T12:05:31;7.32;;;3.00;;
9799;SDS011;4939;52.00085300;4.17406100;2023-12-04T12:07:59;6.53;;;2.80;;
9799;SDS011;4939;52.00085300;4.17406100;2023-12-04T12:10:26;7.38;;;3.10;;
9799;SDS011;4939;52.00085300;4.17406100;2023-12-04T12:12:52;7.93;;;2.92;;
9799;SDS011;4939;52.00085300;4.17406100;2023-12-04T12:15:19;8.02;;;3.30;;
9799;SDS011;4939;52.00085300;4.17406100;2023-12-04T12:17:45;6.03;;;2.88;;
9799;SDS011;4939;52.00085300;4.17406100;2023-12-04T12:20:12;7.65;;;3.40;;
9799;SDS011;4939;52.00085300;4.17406100;2023-12-04T12:22:38;7.60;;;3.20;;
9799;SDS011;4939;52.00085300;4.17406100;2023-12-04T12:25:11;6.82;;;3.00;;
9799;SDS011;4939;52.00085300;4.17406100;2023-12-04T12:27:37;6.65;;;2.95;;
9799;SDS011;4939;52.00085300;4.17406100;2023-12-04T12:30:04;8.10;;;3.10;;
9799;SDS011;4939;52.00085300;4.17406100;2023-12-04T12:32:31;7.28;;;3.10;;
9799;SDS011;4939;52.00085300;4.17406100;2023-12-04T12:34:57;7.93;;;3.10;;
9799;SDS011;4939;52.00085300;4.17406100;2023-12-04T12:37:23;10.05;;;4.05;;
9799;SDS011;4939;52.00085300;4.17406100;2023-12-04T12:39:52;6.60;;;2.90;;
9799;SDS011;4939;52.00085300;4.17406100;2023-12-04T12:42:21;7.50;;;2.97;;
9799;SDS011;4939;52.00085300;4.17406100;2023-12-04T12:44:48;8.25;;;2.90;;
9799;SDS011;4939;52.00085300;4.17406100;2023-12-04T12:47:14;7.25;;;2.83;;
9799;SDS011;4939;52.00085300;4.17406100;2023-12-04T12:49:40;5.88;;;3.05;;
9799;SDS011;4939;52.00085300;4.17406100;2023-12-04T12:52:06;9.38;;;3.08;;
9799;SDS011;4939;52.00085300;4.17406100;2023-12-04T12:54:36;9.20;;;3.35;;
9799;SDS011;4939;52.00085300;4.17406100;2023-12-04T12:57:02;7.50;;;2.80;;
9799;SDS011;4939;52.00085300;4.17406100;2023-12-04T12:59:28;8.23;;;3.15;;
9799;SDS011;4939;52.00085300;4.17406100;2023-12-04T13:01:54;7.05;;;3.08;;
9799;SDS011;4939;52.00085300;4.17406100;2023-12-04T13:04:22;8.45;;;3.40;;